Time;durP1;ratioP1;P1;durP2;ratioP2;P2;SDS_P1;SDS_P2;PMS_P1;PMS_P2;Temp;Humidity;BMP_temperature;BMP_pressure;BME280_temperature;BME280_humidity;BME280_pressure;Samples;Min_cycle;Max_cycle;Signal;HPM_P1;HPM_P2
2021/12/17 00:00:17;;;;;;;264.52;41.35;;;;;;;7.84;100.00;103989.47;5045482;28;20025;-90
2021/12/17 00:05:50;;;;;;;233.15;37.55;;;;;;;7.91;100.00;104004.38;5038651;28;20028;-91
2021/12/17 00:08:24;;;;;;;225.73;37.40;;;;;;;7.89;100.00;103996.56;5062197;28;20029;-90
2021/12/17 00:10:52;;;;;;;243.13;39.03;;;;;;;7.89;100.00;104004.31;5040565;28;20032;-91
2021/12/17 00:13:31;;;;;;;237.95;40.08;;;;;;;7.97;100.00;104008.88;5033632;28;20112;-91
2021/12/17 00:16:25;;;;;;;253.45;39.25;;;;;;;7.95;100.00;104001.06;5043512;28;20029;-91
2021/12/17 00:19:32;;;;;;;235.45;37.97;;;;;;;7.94;100.00;104000.19;5040727;28;20032;-90
2021/12/17 00:53:33;;;;;;;299.25;41.38;;;;;;;7.89;100.00;103985.34;5057127;28;20040;-90
2021/12/17 00:56:02;;;;;;;291.83;38.85;;;;;;;7.86;100.00;103995.56;5050931;28;20048;-90
2021/12/17 00:58:33;;;;;;;320.33;41.97;;;;;;;7.79;100.00;103983.22;5034287;28;20458;-90
2021/12/17 01:01:05;;;;;;;330.42;43.45;;;;;;;7.78;100.00;103977.19;5039761;28;20182;-90
2021/12/17 01:03:34;;;;;;;306.52;38.17;;;;;;;7.92;100.00;104001.81;5056484;28;20021;-90
2021/12/17 01:06:15;;;;;;;318.17;39.42;;;;;;;7.87;100.00;103985.28;5055097;28;20032;-90
2021/12/17 01:08:48;;;;;;;266.08;35.58;;;;;;;7.87;100.00;103972.38;5039690;28;20025;-90
2021/12/17 01:11:31;;;;;;;284.58;36.55;;;;;;;7.98;100.00;103988.28;5041187;28;20083;-90
2021/12/17 01:14:04;;;;;;;346.90;42.55;;;;;;;7.93;100.00;103982.94;5083021;28;20024;-90
2021/12/17 01:16:53;;;;;;;308.20;40.60;;;;;;;7.87;100.00;103972.38;5036428;28;20474;-90
2021/12/17 01:25:08;;;;;;;329.25;41.00;;;;;;;7.96;100.00;103973.53;5053261;28;20408;-90
2021/12/17 01:36:28;;;;;;;318.60;39.38;;;;;;;7.91;100.00;103958.75;5042040;28;20047;-90
2021/12/17 01:42:07;;;;;;;277.05;37.75;;;;;;;7.97;100.00;103962.41;5053005;28;20102;-90
2021/12/17 01:44:46;;;;;;;325.55;40.70;;;;;;;7.94;100.00;103957.97;5038944;28;20120;-90
2021/12/17 01:47:22;;;;;;;;;;;;;;;;;;;;;
2021/12/17 01:56:15;;;;;;;294.20;36.90;;;;;;;7.97;100.00;103973.59;5052753;28;20102;-91
2021/12/17 02:01:33;;;;;;;285.80;33.58;;;;;;;7.93;100.00;103969.13;5043928;28;20074;-91
2021/12/17 02:04:08;;;;;;;292.50;35.58;;;;;;;7.88;100.00;103963.81;5033226;28;20048;-90
2021/12/17 02:06:42;;;;;;;335.88;40.47;;;;;;;7.89;100.00;103964.69;5051819;28;20033;-91
2021/12/17 02:09:44;;;;;;;305.45;38.67;;;;;;;7.90;100.00;103958.72;5051756;28;20036;-90
2021/12/17 02:30:02;;;;;;;285.63;36.28;;;;;;;7.95;100.00;103990.75;5062010;28;20112;-90
2021/12/17 02:32:40;;;;;;;328.02;38.28;;;;;;;7.86;100.00;103980.94;5044584;28;20029;-91
2021/12/17 02:37:48;;;;;;;368.73;40.75;;;;;;;7.81;100.00;103992.81;5058154;28;20060;-90
2021/12/17 02:45:48;;;;;;;370.85;43.30;;;;;;;7.71;100.00;103982.94;5050119;28;20024;-90
2021/12/17 02:48:16;;;;;;;371.23;43.97;;;;;;;7.65;100.00;103977.53;5058927;28;20028;-90
2021/12/17 02:51:15;;;;;;;345.13;43.63;;;;;;;7.70;100.00;103977.72;5052132;28;20060;-91
2021/12/17 02:53:41;;;;;;;374.67;44.28;;;;;;;7.76;100.00;103994.34;4969565;28;20038;-91
2021/12/17 02:56:21;;;;;;;348.05;39.83;;;;;;;7.69;100.00;103984.59;4953061;28;20042;-91
2021/12/17 02:58:53;;;;;;;368.13;41.10;;;;;;;7.65;100.00;103977.53;4969581;28;20473;-90
2021/12/17 03:04:26;;;;;;;345.77;39.72;;;;;;;7.63;100.00;103984.34;4983464;28;20035;-91
2021/12/17 03:06:57;;;;;;;369.38;42.97;;;;;;;7.70;100.00;103999.28;5054229;28;20040;-90
2021/12/17 03:09:48;;;;;;;361.00;40.13;;;;;;;7.71;100.00;104005.31;5045933;28;20521;-90
2021/12/17 03:12:33;;;;;;;361.75;43.05;;;;;;;7.71;100.00;103998.41;5037592;28;20040;-91
2021/12/17 03:23:50;;;;;;;313.15;39.53;;;;;;;7.59;100.00;103985.03;5052307;28;20163;-90
2021/12/17 03:26:36;;;;;;;322.92;38.20;;;;;;;7.50;100.00;103979.53;5037766;28;20021;-90
2021/12/17 03:29:21;;;;;;;301.48;35.92;;;;;;;7.47;100.00;103972.53;5059621;28;20032;-90
2021/12/17 03:31:50;;;;;;;355.35;36.90;;;;;;;7.47;100.00;103969.09;5039403;28;20510;-90
2021/12/17 03:34:21;;;;;;;341.83;37.40;;;;;;;7.47;100.00;103966.50;5056543;28;20087;-90
2021/12/17 03:37:03;;;;;;;339.10;35.67;;;;;;;7.53;100.00;103977.06;5063204;28;20032;-91
2021/12/17 03:39:49;;;;;;;351.35;37.00;;;;;;;7.59;100.00;103985.03;5071044;28;20163;-90
2021/12/17 03:42:23;;;;;;;351.17;37.50;;;;;;;7.48;100.00;103976.00;5067987;28;20123;-90
2021/12/17 03:44:54;;;;;;;364.90;38.93;;;;;;;7.44;100.00;103977.56;5033570;28;20040;-90
2021/12/17 03:47:28;;;;;;;323.25;36.15;;;;;;;7.43;100.00;103978.41;5032860;28;20032;-90
2021/12/17 03:49:58;;;;;;;336.83;36.92;;;;;;;7.53;100.00;103992.56;5038316;28;20024;-91
2021/12/17 03:52:29;;;;;;;303.58;35.08;;;;;;;7.46;100.00;103980.22;5041194;28;20116;-90
2021/12/17 03:55:10;;;;;;;303.23;34.53;;;;;;;7.51;100.00;103994.19;5032790;28;20024;-90
2021/12/17 03:57:40;;;;;;;302.20;32.08;;;;;;;7.46;100.00;103982.81;5029529;28;20071;-90
2021/12/17 04:00:12;;;;;;;302.75;34.00;;;;;;;7.44;100.00;103974.09;5045592;28;20027;-90
2021/12/17 04:02:45;;;;;;;308.23;32.17;;;;;;;7.40;100.00;103967.97;5048201;28;20052;-90
2021/12/17 04:05:19;;;;;;;288.83;30.92;;;;;;;7.45;100.00;103975.88;5052045;28;20060;-91
2021/12/17 04:07:47;;;;;;;291.52;33.97;;;;;;;7.44;100.00;103974.09;5034225;28;20052;-90
2021/12/17 04:10:18;;;;;;;287.45;32.42;;;;;;;7.38;100.00;103963.56;5070182;28;20020;-91
2021/12/17 04:13:15;;;;;;;290.20;30.13;;;;;;;7.39;100.00;103971.34;5041605;28;20093;-91
2021/12/17 04:15:42;;;;;;;276.85;31.20;;;;;;;7.42;100.00;103980.94;5054664;28;20079;-90
2021/12/17 04:18:29;;;;;;;259.17;29.88;;;;;;;7.39;100.00;103978.22;5049835;28;20036;-90
2021/12/17 04:21:13;;;;;;;279.90;28.85;;;;;;;7.43;100.00;103982.69;5056593;28;20070;-91
2021/12/17 04:23:55;;;;;;;295.52;30.30;;;;;;;7.45;100.00;103994.81;5043988;28;20047;-90
2021/12/17 04:26:31;;;;;;;276.67;31.33;;;;;;;7.45;100.00;103991.34;5065595;28;20245;-90
2021/12/17 04:28:59;;;;;;;260.42;30.27;;;;;;;7.43;100.00;103987.88;5068517;28;20032;-90
2021/12/17 04:31:29;;;;;;;274.30;29.77;;;;;;;7.40;100.00;103987.72;5051514;28;20021;-91
2021/12/17 04:34:05;;;;;;;275.13;29.05;;;;;;;7.36;100.00;103973.84;5049842;28;20025;-90
2021/12/17 04:36:35;;;;;;;268.52;28.73;;;;;;;7.36;100.00;103963.50;5031197;28;20131;-90
2021/12/17 04:39:08;;;;;;;264.27;29.77;;;;;;;7.39;100.00;103965.31;5048218;28;20110;-90
2021/12/17 04:41:44;;;;;;;275.50;30.00;;;;;;;7.44;100.00;103987.00;5061782;28;20024;-90
2021/12/17 04:44:28;;;;;;;275.35;28.67;;;;;;;7.39;100.00;103973.06;5046810;28;20492;-90
2021/12/17 04:58:21;;;;;;;228.07;25.67;;;;;;;7.35;100.00;103971.19;5042231;28;20068;-90
2021/12/17 05:00:50;;;;;;;246.25;25.23;;;;;;;7.28;100.00;103964.91;5030989;28;20029;-90
2021/12/17 05:03:20;;;;;;;248.57;25.25;;;;;;;7.25;100.00;103956.16;5027484;28;20381;-91
2021/12/17 05:05:54;;;;;;;219.75;24.30;;;;;;;7.40;100.00;103990.31;5028907;28;20036;-90
2021/12/17 05:08:29;;;;;;;222.75;22.58;;;;;;;7.30;100.00;103967.56;5032868;28;20025;-90
2021/12/17 05:19:39;;;;;;;226.03;25.17;;;;;;;7.31;100.00;103977.03;5050046;28;20039;-91
2021/12/17 05:22:12;;;;;;;224.25;25.05;;;;;;;7.31;100.00;103980.50;5038984;28;20416;-90
2021/12/17 05:24:38;;;;;;;202.13;22.43;;;;;;;7.35;100.00;103992.72;5061327;28;20207;-90
2021/12/17 05:27:04;;;;;;;231.73;24.80;;;;;;;7.36;100.00;103991.91;5021347;28;20275;-90
2021/12/17 05:29:33;;;;;;;236.32;25.13;;;;;;;7.22;100.00;103974.09;5032757;28;20017;-90
2021/12/17 05:32:01;;;;;;;200.40;23.65;;;;;;;7.33;100.00;103983.13;5063889;28;20021;-90
2021/12/17 05:34:29;;;;;;;210.40;22.88;;;;;;;7.29;100.00;103973.53;5049166;28;20052;-90
2021/12/17 05:36:56;;;;;;;230.02;24.40;;;;;;;7.32;100.00;103976.22;5064109;28;20119;-90
2021/12/17 05:39:43;;;;;;;212.43;22.98;;;;;;;7.34;100.00;103974.59;5066092;28;20128;-90
2021/12/17 05:42:22;;;;;;;211.95;22.52;;;;;;;7.49;100.00;103988.09;5031117;28;20108;-90
2021/12/17 05:45:07;;;;;;;200.98;22.48;;;;;;;7.43;100.00;103973.25;5031680;28;20013;-90
2021/12/17 05:47:45;;;;;;;223.80;24.15;;;;;;;7.49;100.00;103988.09;5050557;28;20036;-90
2021/12/17 05:50:20;;;;;;;194.38;20.88;;;;;;;7.42;100.00;103986.97;5037161;28;20072;-90
2021/12/17 05:52:51;;;;;;;192.82;20.02;;;;;;;7.41;100.00;103984.34;5042509;28;20063;-90
2021/12/17 05:55:24;;;;;;;176.95;19.23;;;;;;;7.47;100.00;103997.47;5043386;28;20028;-91
2021/12/17 05:57:53;;;;;;;175.70;20.65;;;;;;;7.43;100.00;103996.50;5043296;28;20111;-91
2021/12/17 06:00:33;;;;;;;177.27;19.98;;;;;;;7.38;100.00;103994.50;5068980;28;20046;-90
2021/12/17 06:03:05;;;;;;;171.18;18.85;;;;;;;7.34;100.00;103988.38;5071084;28;20482;-90
2021/12/17 06:05:36;;;;;;;161.40;18.83;;;;;;;7.29;100.00;103989.00;5052861;28;20028;-90
2021/12/17 06:08:07;;;;;;;162.70;19.95;;;;;;;7.32;100.00;104000.31;5055986;28;20029;-89
2021/12/17 06:10:36;;;;;;;153.95;18.80;;;;;;;7.22;100.00;103990.47;5057502;28;20025;-90
2021/12/17 06:15:56;;;;;;;159.30;18.77;;;;;;;7.23;100.00;104007.72;5045325;28;20067;-91
2021/12/17 06:18:24;;;;;;;160.82;17.65;;;;;;;7.22;100.00;104016.25;5046189;28;20033;-91
2021/12/17 06:20:55;;;;;;;150.77;17.52;;;;;;;7.19;100.00;104002.34;5033591;28;20040;-90
2021/12/17 06:23:29;;;;;;;160.20;20.65;;;;;;;7.22;100.00;104018.84;5061576;28;20457;-90
2021/12/17 06:25:58;;;;;;;140.13;17.02;;;;;;;7.18;100.00;104014.34;5040155;28;20095;-90
2021/12/17 06:28:23;;;;;;;145.73;17.23;;;;;;;7.15;100.00;104016.81;5057791;28;20047;-91
2021/12/17 06:30:51;;;;;;;141.27;17.27;;;;;;;7.11;100.00;104007.19;5046735;28;20386;-90
2021/12/17 06:33:32;;;;;;;153.60;17.15;;;;;;;7.18;100.00;104005.72;5063506;28;20481;-90
2021/12/17 06:35:57;;;;;;;150.77;19.70;;;;;;;7.20;100.00;104017.88;5042986;28;20059;-90
2021/12/17 06:38:24;;;;;;;141.63;18.50;;;;;;;7.16;100.00;104009.97;5038219;28;20060;-90
2021/12/17 06:40:53;;;;;;;152.52;18.98;;;;;;;7.11;100.00;104008.06;5034017;28;20337;-90
2021/12/17 06:43:22;;;;;;;155.18;17.25;;;;;;;7.09;100.00;104007.13;5040437;28;20048;-90
2021/12/17 06:45:56;;;;;;;136.43;18.98;;;;;;;7.13;100.00;104019.34;5070010;28;20032;-90
2021/12/17 06:48:41;;;;;;;137.70;19.13;;;;;;;7.20;100.00;104024.75;5049208;28;20039;-90
2021/12/17 07:20:06;;;;;;;146.48;19.92;;;;;;;7.07;100.00;104006.19;5059372;28;20171;-91
2021/12/17 07:22:05;;;;;;;160.65;20.42;;;;;;;7.19;100.00;104008.38;5068917;28;20059;-90
2021/12/17 07:28:02;;;;;;;154.95;19.67;;;;;;;7.22;100.00;103998.19;5060975;28;20430;-90
2021/12/17 07:33:11;;;;;;;130.18;17.55;;;;;;;7.33;100.00;103989.19;5038595;28;20256;-90
2021/12/17 07:41:16;;;;;;;143.52;18.45;;;;;;;7.45;100.00;104009.44;5042016;28;20503;-90
2021/12/17 07:43:57;;;;;;;141.90;20.05;;;;;;;7.50;100.00;104016.56;5042282;28;20371;-90
2021/12/17 07:46:25;;;;;;;140.45;19.00;;;;;;;7.49;100.00;103995.84;5043372;28;20505;-90
2021/12/17 07:48:54;;;;;;;140.25;17.95;;;;;;;7.54;100.00;104002.94;5034267;28;20058;-90
2021/12/17 07:51:32;;;;;;;150.75;19.23;;;;;;;7.48;100.00;103999.25;5055904;28;20401;-89
2021/12/17 07:54:03;;;;;;;134.10;19.13;;;;;;;7.56;100.00;104015.91;5037856;28;20394;-90
2021/12/17 07:57:03;;;;;;;147.13;19.20;;;;;;;7.59;100.00;104020.31;5051998;28;20742;-90
2021/12/17 07:59:39;;;;;;;127.57;18.73;;;;;;;7.56;100.00;104015.03;5049759;28;20465;-90
2021/12/17 08:02:08;;;;;;;134.98;17.83;;;;;;;7.44;100.00;103994.75;5036647;28;20032;-90
2021/12/17 08:04:47;;;;;;;135.38;18.17;;;;;;;7.54;100.00;104012.38;5036209;28;20478;-90
2021/12/17 08:07:18;;;;;;;126.75;17.67;;;;;;;7.54;100.00;104017.53;5035528;28;20489;-90
2021/12/17 08:09:59;;;;;;;141.00;18.50;;;;;;;7.53;100.00;104032.16;5056029;28;20432;-90
2021/12/17 08:12:38;;;;;;;127.70;20.17;;;;;;;7.43;100.00;104017.13;5037982;28;20108;-90
2021/12/17 08:15:07;;;;;;;146.48;19.65;;;;;;;7.48;100.00;104033.69;5045145;28;20043;-89
2021/12/17 08:18:07;;;;;;;143.70;21.75;;;;;;;7.41;100.00;104021.34;5052633;28;20284;-89
2021/12/17 08:26:38;;;;;;;140.75;20.70;;;;;;;7.55;100.00;104037.38;5058833;28;20076;-91
2021/12/17 08:29:27;;;;;;;147.20;19.67;;;;;;;7.46;100.00;104029.25;5036347;28;20033;-90
2021/12/17 08:31:57;;;;;;;131.70;18.52;;;;;;;7.46;100.00;104016.34;5034454;28;20485;-90
2021/12/17 08:34:28;;;;;;;155.98;20.60;;;;;;;7.46;100.00;104011.19;5052019;28;20115;-90
2021/12/17 08:37:39;;;;;;;155.00;22.75;;;;;;;7.62;100.00;104041.97;5037582;28;20032;-90
2021/12/17 08:40:26;;;;;;;155.23;21.52;;;;;;;7.47;100.00;104033.59;5044010;28;20047;-91
2021/12/17 08:42:58;;;;;;;153.65;20.63;;;;;;;7.44;100.00;104026.59;5025316;28;20690;-89
2021/12/17 08:45:57;;;;;;;;;;;;;;;;;;;;;
2021/12/17 08:48:30;;;;;;;150.07;21.10;;;;;;;7.58;100.00;104045.22;5052522;28;20392;-90
2021/12/17 08:51:06;;;;;;;162.38;21.95;;;;;;;7.45;100.00;104024.91;5026122;28;20413;-91
2021/12/17 08:54:24;;;;;;;165.45;21.90;;;;;;;7.48;100.00;104022.47;5032860;28;20474;-91
2021/12/17 08:57:11;;;;;;;152.82;20.80;;;;;;;7.47;100.00;104018.13;5026616;28;20098;-91
2021/12/17 09:00:10;;;;;;;159.82;21.98;;;;;;;7.59;100.00;104030.63;5026582;28;20483;-90
2021/12/17 09:03:43;;;;;;;165.82;20.85;;;;;;;7.64;100.00;104035.19;5054789;28;20156;-92
2021/12/17 09:06:54;;;;;;;169.95;21.50;;;;;;;7.65;100.00;104043.78;5023873;28;20527;-91
2021/12/17 09:12:58;;;;;;;149.35;19.15;;;;;;;7.68;100.00;104062.88;5002166;28;20070;-91
2021/12/17 09:15:32;;;;;;;140.80;18.48;;;;;;;7.64;100.00;104065.28;5027839;28;20115;-91
2021/12/17 09:18:03;;;;;;;162.55;20.60;;;;;;;7.47;100.00;104049.09;5030100;28;20040;-90
2021/12/17 09:21:26;;;;;;;153.57;20.05;;;;;;;7.52;100.00;104052.72;5031670;28;20060;-91
2021/12/17 09:24:09;;;;;;;139.55;19.65;;;;;;;7.52;100.00;104060.47;5039124;28;20486;-90
2021/12/17 09:26:48;;;;;;;139.45;17.27;;;;;;;7.56;100.00;104069.25;5019777;28;20375;-91
2021/12/17 09:32:43;;;;;;;154.57;19.13;;;;;;;7.50;100.00;104054.41;5016055;28;20029;-91
2021/12/17 09:35:37;;;;;;;145.63;18.52;;;;;;;7.54;100.00;104048.53;5002426;28;20510;-91
2021/12/17 09:38:05;;;;;;;149.30;19.27;;;;;;;7.58;100.00;104060.72;5015139;28;20036;-91
2021/12/17 09:41:04;;;;;;;152.48;18.95;;;;;;;7.68;100.00;104069.72;5020081;28;20056;-91
2021/12/17 09:43:40;;;;;;;;;;;;;;;;;;;;;
2021/12/17 09:46:36;;;;;;;125.82;18.30;;;;;;;7.63;100.00;104085.03;5029330;28;20398;-90
2021/12/17 09:49:15;;;;;;;137.70;18.85;;;;;;;7.60;100.00;104064.25;5017335;28;20025;-90
2021/12/17 09:51:47;;;;;;;129.13;18.00;;;;;;;7.65;100.00;104077.34;5014259;28;20466;-90
2021/12/17 09:54:20;;;;;;;132.00;16.63;;;;;;;7.68;100.00;104077.47;5010427;28;20406;-90
2021/12/17 09:57:05;;;;;;;116.15;17.50;;;;;;;7.70;100.00;104086.16;5031529;28;20030;-90
2021/12/17 09:59:46;;;;;;;122.55;17.38;;;;;;;7.70;100.00;104089.63;5023729;28;20061;-91
2021/12/17 10:02:20;;;;;;;119.47;16.20;;;;;;;7.69;100.00;104098.19;4990748;28;20095;-91
2021/12/17 10:05:04;;;;;;;113.28;16.48;;;;;;;7.68;100.00;104101.59;5030999;28;20132;-91
2021/12/17 10:07:36;;;;;;;120.10;16.10;;;;;;;7.68;100.00;104108.47;5025485;28;20048;-91
2021/12/17 10:10:07;;;;;;;119.85;15.88;;;;;;;7.72;100.00;104118.97;5013064;28;20079;-91
2021/12/17 10:13:25;;;;;;;109.97;15.38;;;;;;;7.76;100.00;104113.13;5030548;28;20264;-91
2021/12/17 10:16:13;;;;;;;106.78;15.57;;;;;;;7.66;100.00;104104.91;5010756;28;20178;-90
2021/12/17 10:19:01;;;;;;;107.10;15.95;;;;;;;7.73;100.00;104115.56;5016337;28;20038;-91
2021/12/17 10:21:53;;;;;;;116.68;15.13;;;;;;;7.66;100.00;104089.44;5016890;28;20463;-90
2021/12/17 10:24:50;;;;;;;104.05;14.10;;;;;;;7.81;100.00;104113.28;5014733;28;20039;-91
2021/12/17 10:27:43;;;;;;;104.28;14.57;;;;;;;7.74;100.00;104093.22;5033552;28;20131;-91
2021/12/17 10:30:37;;;;;;;105.65;14.77;;;;;;;7.76;100.00;104092.47;5020158;28;20025;-91
2021/12/17 10:36:40;;;;;;;80.75;12.57;;;;;;;7.92;100.00;104110.31;5040227;28;20040;-91
2021/12/17 10:39:46;;;;;;;86.78;13.75;;;;;;;7.91;100.00;104094.78;5048251;28;20059;-90
2021/12/17 10:42:47;;;;;;;;;;;;;;;;;;;;;
2021/12/17 10:52:16;;;;;;;75.70;12.35;;;;;;;8.05;100.00;104110.81;5049285;28;20075;-91
2021/12/17 10:55:55;;;;;;;;;;;;;;;;;;;;;
2021/12/17 10:59:12;;;;;;;;;;;;;;;;;;;;;
2021/12/17 11:02:11;;;;;;;;;;;;;;;;;;;;;
2021/12/17 11:05:00;;;;;;;70.25;12.82;;;;;;;8.00;100.00;104113.19;5051020;28;20041;-92
2021/12/17 11:10:57;;;;;;;;;;;;;;;;;;;;;
2021/12/17 11:23:54;;;;;;;65.68;12.40;;;;;;;8.04;100.00;104093.56;4950102;28;20507;-90
2021/12/17 11:26:26;;;;;;;67.43;12.38;;;;;;;8.08;100.00;104103.16;5020718;28;20061;-90
2021/12/17 11:28:52;;;;;;;64.20;11.40;;;;;;;8.00;100.00;104087.38;5036096;28;20064;-90
2021/12/17 11:31:18;;;;;;;68.07;12.15;;;;;;;8.05;100.00;104091.00;5044939;28;20045;-90
2021/12/17 11:33:45;;;;;;;66.40;12.52;;;;;;;8.14;100.00;104100.81;5050830;28;20033;-90
2021/12/17 11:36:11;;;;;;;66.93;12.60;;;;;;;8.10;100.00;104089.50;5049531;28;20094;-90
2021/12/17 11:38:56;;;;;;;65.25;12.05;;;;;;;8.15;100.00;104087.97;5050703;28;20036;-90
2021/12/17 11:41:51;;;;;;;55.45;12.00;;;;;;;8.16;100.00;104084.56;5044876;28;20044;-90
2021/12/17 11:44:21;;;;;;;57.88;11.40;;;;;;;8.09;100.00;104067.06;5027749;28;20025;-90
2021/12/17 11:47:32;;;;;;;62.90;12.05;;;;;;;8.16;100.00;104061.31;5047153;28;20489;-90
2021/12/17 11:50:10;;;;;;;55.00;10.43;;;;;;;8.12;100.00;104067.16;5007014;28;20048;-91
2021/12/17 11:52:35;;;;;;;57.75;10.68;;;;;;;8.20;100.00;104072.63;5038712;28;20025;-90
2021/12/17 11:55:19;;;;;;;56.72;10.75;;;;;;;8.22;100.00;104087.38;5029021;28;20057;-89
2021/12/17 11:58:10;;;;;;;53.00;10.43;;;;;;;8.24;100.00;104084.84;5044566;28;20036;-90
2021/12/17 12:00:44;;;;;;;40.20;9.77;;;;;;;8.19;100.00;104078.63;5022449;28;20284;-91
2021/12/17 12:03:38;;;;;;;37.33;9.02;;;;;;;8.07;100.00;104072.97;5048586;28;20549;-91
2021/12/17 12:06:35;;;;;;;37.87;8.30;;;;;;;8.11;100.00;104064.53;5041896;28;20071;-90
2021/12/17 12:09:05;;;;;;;33.60;7.53;;;;;;;8.05;100.00;104077.22;5036540;28;20397;-89
2021/12/17 12:11:31;;;;;;;33.65;7.63;;;;;;;8.04;100.00;104070.28;5049698;28;20078;-90
2021/12/17 12:14:31;;;;;;;42.10;8.00;;;;;;;8.00;100.00;104065.81;4829716;28;10001157;-90
2021/12/17 12:17:16;;;;;;;34.50;8.18;;;;;;;8.04;100.00;104072.88;4699606;28;10000528;-90
2021/12/17 12:20:29;;;;;;;34.28;8.77;;;;;;;7.99;100.00;104070.09;5031566;28;20029;-89
2021/12/17 12:23:36;;;;;;;28.90;6.95;;;;;;;8.07;100.00;104083.31;5008662;28;20063;-90
2021/12/17 12:26:15;;;;;;;;;;;;;;;;;;;;;
2021/12/17 12:28:52;;;;;;;27.65;7.07;;;;;;;8.04;100.00;104072.88;5063448;28;20036;-90
2021/12/17 12:31:18;;;;;;;30.92;7.20;;;;;;;8.02;99.85;104077.09;5022389;28;20047;-90
2021/12/17 12:34:08;;;;;;;25.52;7.43;;;;;;;8.05;100.00;104074.66;5044648;28;20033;-91
2021/12/17 12:36:51;;;;;;;33.85;7.57;;;;;;;7.98;99.90;104072.66;5031724;28;20041;-90
2021/12/17 12:39:48;;;;;;;30.67;7.97;;;;;;;7.85;100.00;104056.66;5043420;28;20123;-90
2021/12/17 12:42:23;;;;;;;29.00;7.82;;;;;;;7.96;99.27;104084.63;5036694;28;20033;-90
2021/12/17 12:44:48;;;;;;;26.25;6.93;;;;;;;7.92;99.58;104079.31;5042257;28;20442;-90
2021/12/17 12:47:20;;;;;;;24.13;7.22;;;;;;;7.85;98.29;104077.31;5043429;28;20070;-90
2021/12/17 12:49:51;;;;;;;24.65;6.70;;;;;;;7.75;99.45;104059.72;5034617;28;20482;-90
2021/12/17 12:52:44;;;;;;;22.10;6.38;;;;;;;7.74;98.73;104052.78;5050644;28;20064;-91
2021/12/17 12:55:15;;;;;;;24.35;7.25;;;;;;;7.80;98.41;104084.00;5050905;28;20096;-92
2021/12/17 12:57:43;;;;;;;25.27;7.15;;;;;;;7.64;98.34;104049.78;5066222;28;20038;-90
2021/12/17 13:00:25;;;;;;;27.08;6.72;;;;;;;7.70;98.83;104070.69;5051676;28;20505;-90
2021/12/17 13:03:24;;;;;;;24.67;7.38;;;;;;;7.60;98.61;104053.94;5034215;28;20170;-91
2021/12/17 13:06:05;;;;;;;25.40;7.47;;;;;;;7.59;98.85;104056.44;5027555;28;20017;-89
2021/12/17 13:08:31;;;;;;;22.10;6.80;;;;;;;7.64;98.35;104073.91;5060920;28;20027;-90
2021/12/17 13:11:07;;;;;;;24.70;7.10;;;;;;;7.54;98.95;104054.56;5054743;28;20071;-91
2021/12/17 13:13:45;;;;;;;31.40;8.27;;;;;;;7.63;98.84;104061.81;5037127;28;20021;-90
2021/12/17 13:16:35;;;;;;;25.38;7.35;;;;;;;7.54;98.73;104058.84;5034672;28;20068;-90
2021/12/17 13:22:27;;;;;;;27.27;7.88;;;;;;;7.48;99.40;104051.75;4992049;28;20175;-95
2021/12/17 13:24:50;;;;;;;26.38;7.80;;;;;;;7.49;99.41;104043.19;5058292;28;20455;-94
2021/12/17 13:27:26;;;;;;;25.48;7.03;;;;;;;7.51;99.11;104054.44;5041586;28;20028;-95
2021/12/17 13:29:57;;;;;;;25.55;7.55;;;;;;;7.50;98.80;104052.69;5044992;28;20024;-94
2021/12/17 13:32:28;;;;;;;24.88;7.93;;;;;;;7.53;99.06;104057.06;5061861;28;20048;-94
2021/12/17 13:35:06;;;;;;;;;;;;;;;;;;;;;
2021/12/17 13:37:40;;;;;;;25.08;8.13;;;;;;;7.42;98.48;104036.00;5063284;28;20111;-95
2021/12/17 13:40:12;;;;;;;23.83;7.10;;;;;;;7.56;98.47;104071.81;5036063;28;20037;-96
2021/12/17 13:42:46;;;;;;;24.02;7.38;;;;;;;7.54;98.93;104069.19;5037268;28;20024;-96
2021/12/17 13:45:15;;;;;;;;;;;;;;;7.61;99.53;104070.31;5047708;28;20055;-95
2021/12/17 13:47:45;;;;;;;25.63;7.22;;;;;;;7.59;99.11;104070.22;5028620;28;19948;-95
2021/12/17 13:50:12;;;;;;;22.17;7.65;;;;;;;7.58;99.12;104068.47;5027029;28;20152;-89
2021/12/17 13:52:48;;;;;;;32.17;8.93;;;;;;;7.44;99.33;104047.25;5037676;28;20498;-90
2021/12/17 13:55:18;;;;;;;27.83;7.25;;;;;;;7.43;98.50;104044.63;5044717;28;20025;-90
2021/12/17 13:57:46;;;;;;;24.38;7.55;;;;;;;7.40;98.15;104042.81;5063717;28;20033;-91
2021/12/17 14:00:20;;;;;;;20.88;6.60;;;;;;;7.41;98.41;104046.25;5038427;28;20021;-89
2021/12/17 14:05:50;;;;;;;21.77;7.57;;;;;;;7.46;98.58;104061.13;5054711;28;20029;-89
2021/12/17 14:08:19;;;;;;;22.48;7.13;;;;;;;7.46;98.67;104075.72;5054209;28;20031;-89
2021/12/17 14:10:48;;;;;;;25.50;7.45;;;;;;;7.34;98.87;104054.56;5037736;28;20025;-90
2021/12/17 14:13:22;;;;;;;23.10;7.25;;;;;;;7.44;98.67;104067.03;5054742;28;20052;-90
2021/12/17 14:15:53;;;;;;;;;;;;;;;7.47;99.05;104065.47;5040097;28;20074;-90
2021/12/17 14:18:23;;;;;;;20.08;6.43;;;;;;;7.39;99.00;104053.06;5043369;28;19935;-90
2021/12/17 14:21:01;;;;;;;19.38;6.07;;;;;;;7.35;98.59;104048.59;5054334;28;20028;-89
2021/12/17 14:23:29;;;;;;;18.38;5.63;;;;;;;7.32;98.62;104048.47;5038354;28;20086;-89
2021/12/17 14:26:10;;;;;;;19.95;5.88;;;;;;;7.41;98.45;104067.78;5040838;28;20037;-90
2021/12/17 14:28:40;;;;;;;18.83;6.05;;;;;;;7.32;98.00;104051.03;5024739;28;20375;-91
2021/12/17 14:31:18;;;;;;;18.90;5.68;;;;;;;7.34;98.59;104057.16;5034015;28;20099;-91
2021/12/17 14:34:19;;;;;;;14.50;4.97;;;;;;;7.32;98.26;104039.03;5049733;28;20029;-91
2021/12/17 14:37:01;;;;;;;15.20;4.88;;;;;;;7.32;97.40;104035.56;5018608;28;20040;-90
2021/12/17 14:39:44;;;;;;;16.95;4.95;;;;;;;7.37;97.14;104062.47;5027389;28;20554;-91
2021/12/17 14:42:46;;;;;;;15.35;5.38;;;;;;;7.44;97.09;104067.91;5030543;28;20107;-91
2021/12/17 14:45:24;;;;;;;16.67;5.88;;;;;;;7.34;97.31;104041.66;5044059;28;20108;-91
2021/12/17 14:58:42;;;;;;;21.75;6.28;;;;;;;7.52;98.32;104069.09;5023081;28;20523;-87
2021/12/17 15:04:43;;;;;;;22.92;8.48;;;;;;;7.51;95.83;104064.75;5016714;28;20109;-85
2021/12/17 15:07:08;;;;;;;22.23;8.13;;;;;;;7.48;96.60;104059.50;5030586;28;20045;-85
2021/12/17 15:09:38;;;;;;;29.42;10.23;;;;;;;7.48;95.71;104066.34;5015349;28;20459;-84
2021/12/17 15:12:13;;;;;;;31.45;11.00;;;;;;;7.47;94.46;104067.16;5014746;28;20230;-84
2021/12/17 15:14:38;;;;;;;33.75;12.15;;;;;;;7.42;94.02;104066.97;5027548;28;20112;-84
2021/12/17 15:17:04;;;;;;;40.38;14.73;;;;;;;7.41;94.92;104067.78;5012773;28;20156;-84
2021/12/17 15:19:30;;;;;;;37.00;13.27;;;;;;;7.42;95.45;104074.72;5003584;28;20472;-84
2021/12/17 15:21:55;;;;;;;32.40;12.32;;;;;;;7.43;95.87;104075.59;5030629;28;20022;-84
2021/12/17 15:24:20;;;;;;;34.40;11.13;;;;;;;7.44;96.84;104070.47;5023868;28;20041;-86
2021/12/17 15:26:46;;;;;;;36.27;10.83;;;;;;;7.44;97.02;104056.69;5016809;28;20622;-90
2021/12/17 15:29:11;;;;;;;32.77;11.00;;;;;;;7.42;95.78;104054.09;5019890;28;20272;-89
2021/12/17 15:31:36;;;;;;;29.77;10.90;;;;;;;7.44;94.92;104060.16;5029712;28;20648;-91
2021/12/17 15:34:02;;;;;;;28.35;10.25;;;;;;;7.43;95.23;104054.97;5000896;28;20345;-89
2021/12/17 15:36:27;;;;;;;32.83;11.88;;;;;;;7.43;95.08;104065.28;5020299;28;20044;-90
2021/12/17 15:38:53;;;;;;;29.55;10.88;;;;;;;7.42;94.93;104056.66;5011856;28;20143;-88
2021/12/17 15:41:18;;;;;;;30.63;11.55;;;;;;;7.43;94.69;104053.25;5010533;28;20025;-88
2021/12/17 15:43:43;;;;;;;35.88;12.15;;;;;;;7.41;96.09;104046.25;5003637;28;20108;-89
2021/12/17 15:46:09;;;;;;;33.88;11.88;;;;;;;7.42;95.59;104050.63;5028069;28;20017;-90
2021/12/17 15:48:34;;;;;;;35.10;11.55;;;;;;;7.43;96.19;104048.09;5022908;28;20033;-90